createdAt,value
2024-01-10T00:27:48.262Z,1022.42
2024-01-10T00:27:51.678Z,1022.11
2024-01-10T00:28:22.687Z,1022.42
2024-01-10T00:28:53.135Z,1022.42
2024-01-10T00:29:23.469Z,1022.21
2024-01-10T00:29:55.102Z,1022.21
2024-01-10T00:30:27.244Z,1022.42
2024-01-10T00:30:57.461Z,1022.42
2024-01-10T00:31:27.449Z,1022.52
2024-01-10T00:31:59.120Z,1022.52
2024-01-10T00:32:29.594Z,1022.42
2024-01-10T00:33:01.485Z,1022.42
2024-01-10T00:33:33.070Z,1022.32
2024-01-10T00:34:03.123Z,1022.32
2024-01-10T00:34:33.517Z,1022.42
2024-01-10T00:35:05.734Z,1022.42
2024-01-10T00:35:35.919Z,1022.42
2024-01-10T00:36:07.471Z,1022.21
2024-01-10T00:36:37.510Z,1022.21
2024-01-10T00:37:09.044Z,1022.52
2024-01-10T00:37:39.503Z,1022.52
2024-01-10T00:38:11.401Z,1022.52
2024-01-10T00:38:42.514Z,1022.52
2024-01-10T00:39:13.071Z,1022.32
2024-01-10T00:39:43.528Z,1022.32
2024-01-10T00:40:15.931Z,1022.62
2024-01-10T00:40:45.505Z,1022.62
2024-01-10T00:41:17.064Z,1022.42
2024-01-10T00:41:47.602Z,1022.42
2024-01-10T00:42:25.009Z,1022.62
2024-01-10T00:42:49.497Z,1022.62
2024-01-10T00:43:21.579Z,1022.42
2024-01-10T00:43:52.498Z,1022.42
2024-01-10T00:44:23.524Z,1022.62
2024-01-10T00:44:53.680Z,1022.62
2024-01-10T00:45:25.933Z,1022.62
2024-01-10T00:45:55.511Z,1022.62
2024-01-10T00:46:27.035Z,1022.42
2024-01-10T00:46:57.528Z,1022.42
2024-01-10T00:47:29.160Z,1022.42
2024-01-10T00:47:59.668Z,1022.42
2024-01-10T00:48:31.910Z,1022.42
2024-01-10T00:49:03.402Z,1022.42
2024-01-10T00:49:33.260Z,1022.62
2024-01-10T00:50:04.183Z,1022.42
2024-01-10T00:50:35.289Z,1022.42
2024-01-10T00:51:05.675Z,1022.52
2024-01-10T00:51:37.692Z,1022.52
2024-01-10T00:52:07.800Z,1022.32
2024-01-10T00:52:39.718Z,1022.32
2024-01-10T00:53:09.544Z,1022.42
2024-01-10T00:53:41.124Z,1022.42
2024-01-10T00:54:12.731Z,1022.82
2024-01-10T00:54:43.654Z,1022.82
2024-01-10T00:55:14.752Z,1022.72
2024-01-10T00:55:45.087Z,1022.72
2024-01-10T00:56:15.542Z,1022.62
2024-01-10T00:56:47.779Z,1022.62
2024-01-10T00:57:17.756Z,1022.52
2024-01-10T00:57:49.572Z,1022.52
2024-01-10T00:58:20.451Z,1022.52
2024-01-10T00:58:52.131Z,1022.52
2024-01-10T00:59:23.005Z,1022.52
2024-01-10T00:59:53.042Z,1022.52
2024-01-10T01:00:25.970Z,1022.32
2024-01-10T01:00:56.008Z,1022.32
2024-01-10T01:01:26.299Z,1022.52
2024-01-10T01:02:03.354Z,1022.52
2024-01-10T01:02:28.769Z,1022.32
2024-01-10T01:02:58.912Z,1022.32
2024-01-10T01:03:30.750Z,1022.52
2024-01-10T01:04:00.586Z,1022.52
2024-01-10T01:04:33.577Z,1022.21
2024-01-10T01:05:03.590Z,1022.21
2024-01-10T01:05:33.635Z,1022.42
2024-01-10T01:06:05.552Z,1022.32
2024-01-10T01:06:35.644Z,1022.32
2024-01-10T01:07:08.066Z,1022.42
2024-01-10T01:07:37.800Z,1022.42
2024-01-10T01:08:09.103Z,1022.32
2024-01-10T01:08:39.695Z,1022.32
2024-01-10T01:09:11.369Z,1022.21
2024-01-10T01:09:42.587Z,1022.21
2024-01-10T01:10:14.193Z,1022.42
2024-01-10T01:10:43.963Z,1022.42
2024-01-10T01:11:15.650Z,1022.21
2024-01-10T01:11:46.007Z,1022.21
2024-01-10T01:12:17.988Z,1022.42
2024-01-10T01:12:47.666Z,1022.42
2024-01-10T01:13:19.692Z,1022.42
2024-01-10T01:13:49.887Z,1022.42
2024-01-10T01:14:21.739Z,1022.42
2024-01-10T01:14:52.954Z,1022.42
2024-01-10T01:15:23.889Z,1022.32
2024-01-10T01:15:53.598Z,1022.32
2024-01-10T01:16:25.124Z,1022.42
2024-01-10T01:16:55.794Z,1022.42
2024-01-10T01:17:27.093Z,1022.52
2024-01-10T01:17:58.135Z,1022.52
2024-01-10T01:18:29.675Z,1022.42
2024-01-10T01:18:59.602Z,1022.42
2024-01-10T01:19:31.434Z,1022.62
2024-01-10T01:20:03.190Z,1022.62
2024-01-10T01:20:33.172Z,1022.62
2024-01-10T01:21:03.533Z,1022.62
2024-01-10T01:21:35.303Z,1022.62
2024-01-10T01:22:05.696Z,1022.52
2024-01-10T01:22:37.504Z,1022.52
2024-01-10T01:23:07.533Z,1022.52
2024-01-10T01:23:42.306Z,1022.52
2024-01-10T01:24:10.101Z,1022.52
2024-01-10T01:24:41.209Z,1022.52
2024-01-10T01:25:13.233Z,1022.52
2024-01-10T01:25:43.084Z,1022.52
2024-01-10T01:26:13.736Z,1022.72
2024-01-10T01:26:45.156Z,1022.72
2024-01-10T01:27:15.449Z,1022.72
2024-01-10T01:27:46.481Z,1022.72
2024-01-10T01:28:18.111Z,1022.52
2024-01-10T01:28:48.812Z,1022.52
2024-01-10T01:29:20.630Z,1022.72
2024-01-10T01:29:50.955Z,1022.72
2024-01-10T01:30:25.160Z,1022.42
2024-01-10T01:30:52.757Z,1022.42
2024-01-10T01:31:23.681Z,1022.62
2024-01-10T01:31:55.422Z,1022.62
2024-01-10T01:32:26.270Z,1022.62
2024-01-10T01:32:57.325Z,1022.62
2024-01-10T01:33:27.532Z,1022.52
2024-01-10T01:33:59.141Z,1022.52
2024-01-10T01:34:29.630Z,1022.32
2024-01-10T01:35:01.958Z,1022.32
2024-01-10T01:35:32.947Z,1022.42
2024-01-10T01:36:05.099Z,1022.42
2024-01-10T01:36:33.510Z,1022.72
2024-01-10T01:37:05.123Z,1022.42
2024-01-10T01:37:35.564Z,1022.42
2024-01-10T01:38:07.678Z,1022.52
2024-01-10T01:38:37.740Z,1022.52
2024-01-10T01:39:10.099Z,1022.62
2024-01-10T01:39:39.568Z,1022.62
2024-01-10T01:40:12.456Z,1022.42
2024-01-10T01:40:43.174Z,1022.42
2024-01-10T01:41:13.341Z,1022.62
2024-01-10T01:41:43.863Z,1022.62
2024-01-10T01:42:15.326Z,1022.52
2024-01-10T01:42:46.047Z,1022.52
2024-01-10T01:43:17.703Z,1022.52
2024-01-10T01:43:47.827Z,1022.52
2024-01-10T01:44:19.662Z,1022.42
2024-01-10T01:44:49.430Z,1022.42
2024-01-10T01:45:22.612Z,1022.42
2024-01-10T01:45:52.754Z,1022.42
2024-01-10T01:46:23.451Z,1022.11
2024-01-10T01:46:53.733Z,1022.11
2024-01-10T01:47:25.456Z,1022.21
2024-01-10T01:47:55.882Z,1022.21
2024-01-10T01:48:28.883Z,1022.62
2024-01-10T01:48:57.877Z,1022.62
2024-01-10T01:49:29.832Z,1022.42
2024-01-10T01:49:59.534Z,1022.42
2024-01-10T01:50:32.599Z,1022.32
2024-01-10T01:51:02.770Z,1022.32
2024-01-10T01:51:33.753Z,1022.21
2024-01-10T01:52:03.527Z,1022.32
2024-01-10T01:52:35.822Z,1022.32
2024-01-10T01:53:05.902Z,1022.32
2024-01-10T01:53:37.222Z,1022.32
2024-01-10T01:54:08.369Z,1022.42
2024-01-10T01:54:39.594Z,1022.42
2024-01-10T01:55:10.373Z,1022.42
2024-01-10T01:55:41.471Z,1022.42
2024-01-10T01:56:12.632Z,1022.52
2024-01-10T01:56:43.519Z,1022.52
2024-01-10T01:57:13.866Z,1022.42
2024-01-10T01:57:45.532Z,1022.42
2024-01-10T01:58:15.491Z,1022.42
2024-01-10T01:58:47.635Z,1022.42
2024-01-10T01:59:17.718Z,1022.42
2024-01-10T01:59:49.532Z,1022.42
2024-01-10T02:00:22.011Z,1022.42
2024-01-10T02:00:51.674Z,1022.42
2024-01-10T02:01:22.693Z,1022.32
2024-01-10T02:01:53.333Z,1022.32
2024-01-10T02:02:24.059Z,1022.21
2024-01-10T02:02:55.947Z,1022.21
2024-01-10T02:03:25.874Z,1022.42
2024-01-10T02:03:57.605Z,1022.42
2024-01-10T02:04:27.638Z,1022.52
2024-01-10T02:05:00.158Z,1022.52
2024-01-10T02:05:30.476Z,1022.42
2024-01-10T02:06:01.848Z,1022.42
2024-01-10T02:06:33.080Z,1022.32
2024-01-10T02:07:03.871Z,1022.32
2024-01-10T02:07:33.948Z,1022.21
2024-01-10T02:08:05.522Z,1022.32
2024-01-10T02:08:35.836Z,1022.32
2024-01-10T02:09:07.207Z,1022.42
2024-01-10T02:09:37.593Z,1022.42
2024-01-10T02:10:09.671Z,1022.32
2024-01-10T02:10:39.719Z,1022.32
2024-01-10T02:11:11.524Z,1022.32
2024-01-10T02:11:42.740Z,1022.32
2024-01-10T02:12:13.652Z,1022.21
2024-01-10T02:12:43.665Z,1022.21
2024-01-10T02:13:15.565Z,1022.21
2024-01-10T02:13:46.022Z,1022.21
2024-01-10T02:14:17.679Z,1022.21
2024-01-10T02:14:47.442Z,1022.21
2024-01-10T02:15:19.986Z,1022.11
2024-01-10T02:15:49.873Z,1022.11
2024-01-10T02:16:21.353Z,1022.21
2024-01-10T02:16:52.510Z,1022.21
2024-01-10T02:17:23.315Z,1022.01
2024-01-10T02:17:53.809Z,1022.01
2024-01-10T02:18:25.922Z,1022.01
2024-01-10T02:18:55.694Z,1022.01
2024-01-10T02:19:27.919Z,1022.11
2024-01-10T02:19:57.800Z,1022.11
2024-01-10T02:20:31.615Z,1022.11
2024-01-10T02:20:59.446Z,1022.11
2024-01-10T02:21:31.335Z,1022.21
2024-01-10T02:22:02.938Z,1022.21
2024-01-10T02:22:34.015Z,1022.01
2024-01-10T02:23:03.952Z,1022.21
2024-01-10T02:23:35.452Z,1022.21
2024-01-10T02:24:06.251Z,1022.11
2024-01-10T02:24:37.378Z,1022.11
2024-01-10T02:25:08.504Z,1022.21
2024-01-10T02:25:39.765Z,1022.21
2024-01-10T02:26:09.820Z,1022.11
2024-01-10T02:26:41.846Z,1022.11
2024-01-10T02:27:12.554Z,1022.21
2024-01-10T02:27:42.559Z,1022.21
2024-01-10T02:28:14.723Z,1022.21
2024-01-10T02:28:44.715Z,1022.21
2024-01-10T02:29:16.168Z,1022.32
2024-01-10T02:29:46.483Z,1022.32
2024-01-10T02:30:19.398Z,1022.21
2024-01-10T02:30:48.944Z,1022.21
2024-01-10T02:31:20.060Z,1022.21
2024-01-10T02:31:50.828Z,1022.21
2024-01-10T02:32:23.361Z,1022.11
2024-01-10T02:32:52.599Z,1022.11
2024-01-10T02:33:24.145Z,1022.21
2024-01-10T02:33:54.798Z,1022.21
2024-01-10T02:34:26.123Z,1022.11
2024-01-10T02:34:56.875Z,1022.11
2024-01-10T02:35:30.011Z,1022.11
2024-01-10T02:35:58.884Z,1022.11
2024-01-10T02:36:31.108Z,1022.11
2024-01-10T02:37:01.575Z,1022.11
2024-01-10T02:37:33.381Z,1022.21
2024-01-10T02:38:02.938Z,1022.21
2024-01-10T02:38:34.606Z,1022.01
2024-01-10T02:39:04.925Z,1022.42
2024-01-10T02:39:36.372Z,1022.42
2024-01-10T02:40:07.028Z,1022.32
2024-01-10T02:40:38.488Z,1022.32
2024-01-10T02:41:09.421Z,1022.21
2024-01-10T02:41:40.761Z,1022.21
2024-01-10T02:42:12.955Z,1022.11
2024-01-10T02:42:43.271Z,1022.11
2024-01-10T02:43:12.710Z,1022.11
2024-01-10T02:43:44.729Z,1022.11
2024-01-10T02:44:14.780Z,1022.11
2024-01-10T02:44:46.400Z,1022.11
2024-01-10T02:45:17.693Z,1022.01
2024-01-10T02:45:48.363Z,1022.01
2024-01-10T02:46:18.473Z,1022.21
2024-01-10T02:46:50.340Z,1022.21
2024-01-10T02:47:20.758Z,1022.11
2024-01-10T02:47:58.700Z,1022.11
2024-01-10T02:48:26.294Z,1022.11
2024-01-10T02:48:53.430Z,1022.11
2024-01-10T02:49:25.745Z,1022.32
2024-01-10T02:49:55.859Z,1022.32
2024-01-10T02:50:28.015Z,1022.11
2024-01-10T02:50:57.847Z,1022.11
2024-01-10T02:51:30.680Z,1022.11
2024-01-10T02:51:59.576Z,1022.11
2024-01-10T02:52:30.908Z,1022.11
2024-01-10T02:53:03.564Z,1022.11
2024-01-10T02:53:32.401Z,1022.32
2024-01-10T02:54:05.517Z,1022.21
2024-01-10T02:54:35.313Z,1022.21
2024-01-10T02:55:06.771Z,1022.01
2024-01-10T02:55:36.838Z,1022.01
2024-01-10T02:56:08.466Z,1022.32
2024-01-10T02:56:38.606Z,1022.32
2024-01-10T02:57:10.612Z,1022.01
2024-01-10T02:57:40.644Z,1022.01
2024-01-10T02:58:13.153Z,1022.32
2024-01-10T02:58:42.676Z,1022.32
2024-01-10T02:59:14.231Z,1021.91
2024-01-10T02:59:44.817Z,1021.91
2024-01-10T03:00:19.080Z,1021.91
2024-01-10T03:00:47.189Z,1021.91
2024-01-10T03:01:18.932Z,1021.91
2024-01-10T03:01:48.671Z,1021.91
2024-01-10T03:02:20.571Z,1022.01
2024-01-10T03:02:51.506Z,1022.01
2024-01-10T03:03:24.071Z,1022.11
2024-01-10T03:03:53.096Z,1022.11
2024-01-10T03:04:24.157Z,1022.11
2024-01-10T03:04:55.893Z,1022.11
2024-01-10T03:05:27.131Z,1021.91
2024-01-10T03:05:57.792Z,1021.91
2024-01-10T03:06:28.866Z,1022.21
2024-01-10T03:06:59.276Z,1022.21
2024-01-10T03:07:30.353Z,1022.11
2024-01-10T03:08:03.595Z,1022.11
2024-01-10T03:08:32.883Z,1022.01
2024-01-10T03:09:03.283Z,1022.01
2024-01-10T03:09:34.766Z,1022.01
2024-01-10T03:10:06.358Z,1022.01
2024-01-10T03:10:35.931Z,1022.01
2024-01-10T03:11:07.874Z,1022.21
2024-01-10T03:11:37.656Z,1022.21
2024-01-10T03:12:10.450Z,1021.74
2024-01-10T03:12:39.948Z,1021.74
2024-01-10T03:13:11.604Z,1022.01
2024-01-10T03:13:42.866Z,1022.01
2024-01-10T03:14:13.357Z,1021.91
2024-01-10T03:14:43.636Z,1021.91
2024-01-10T03:15:16.474Z,1022.11
2024-01-10T03:15:45.970Z,1022.11
2024-01-10T03:16:17.560Z,1022.11
2024-01-10T03:16:47.641Z,1022.11
2024-01-10T03:17:19.166Z,1021.91
2024-01-10T03:17:49.702Z,1021.91
2024-01-10T03:18:21.453Z,1021.91
2024-01-10T03:18:52.884Z,1021.91
2024-01-10T03:19:23.713Z,1022.11
2024-01-10T03:19:53.766Z,1022.11
2024-01-10T03:20:26.314Z,1021.91
2024-01-10T03:20:55.731Z,1021.91
2024-01-10T03:21:27.670Z,1022.01
2024-01-10T03:21:57.712Z,1022.01
2024-01-10T03:22:29.703Z,1022.01
2024-01-10T03:23:00.173Z,1022.01
2024-01-10T03:23:31.827Z,1021.91
2024-01-10T03:24:02.446Z,1021.91
2024-01-10T03:24:35.178Z,1022.11
2024-01-10T03:25:04.239Z,1021.91
2024-01-10T03:25:36.683Z,1021.91
2024-01-10T03:26:05.959Z,1021.84
2024-01-10T03:26:37.486Z,1021.84
2024-01-10T03:27:07.483Z,1022.11
2024-01-10T03:27:38.451Z,1022.11
2024-01-10T03:28:10.216Z,1022.01
2024-01-10T03:28:40.559Z,1022.01
2024-01-10T03:29:13.517Z,1021.74
2024-01-10T03:29:42.858Z,1021.74
2024-01-10T03:30:18.650Z,1021.84
2024-01-10T03:30:44.646Z,1021.84
2024-01-10T03:31:16.579Z,1021.91
2024-01-10T03:31:46.434Z,1021.91
2024-01-10T03:32:18.128Z,1021.84
2024-01-10T03:32:48.647Z,1021.84
2024-01-10T03:33:20.943Z,1022.01
2024-01-10T03:33:50.785Z,1022.01
2024-01-10T03:34:23.465Z,1021.91
2024-01-10T03:34:53.132Z,1021.91
2024-01-10T03:35:25.536Z,1021.91
2024-01-10T03:35:54.506Z,1021.91
2024-01-10T03:36:26.441Z,1021.64
2024-01-10T03:36:56.506Z,1021.64
2024-01-10T03:37:28.270Z,1021.91
2024-01-10T03:37:58.541Z,1021.91
2024-01-10T03:38:30.705Z,1022.01
2024-01-10T03:39:00.566Z,1022.01
2024-01-10T03:39:38.901Z,1022.11
2024-01-10T03:40:03.983Z,1022.11
2024-01-10T03:40:34.279Z,1021.84
2024-01-10T03:41:05.632Z,1022.01
2024-01-10T03:41:35.617Z,1022.01
2024-01-10T03:42:07.997Z,1021.91
2024-01-10T03:42:37.750Z,1021.91
2024-01-10T03:43:09.509Z,1022.01
2024-01-10T03:43:39.820Z,1022.01
2024-01-10T03:44:11.813Z,1021.84
2024-01-10T03:44:42.748Z,1021.84
2024-01-10T03:45:14.241Z,1022.21
2024-01-10T03:45:43.584Z,1022.21
2024-01-10T03:46:15.470Z,1022.01
2024-01-10T03:46:46.079Z,1022.01
2024-01-10T03:47:17.130Z,1021.91
2024-01-10T03:47:47.709Z,1021.91
2024-01-10T03:48:20.553Z,1021.84
2024-01-10T03:48:49.868Z,1021.84
2024-01-10T03:49:21.687Z,1021.84
2024-01-10T03:49:53.509Z,1021.84
2024-01-10T03:50:23.762Z,1021.91
2024-01-10T03:50:53.642Z,1021.91
2024-01-10T03:51:25.473Z,1021.91
2024-01-10T03:51:55.446Z,1021.91
2024-01-10T03:52:27.549Z,1021.91
2024-01-10T03:52:57.712Z,1021.91
2024-01-10T03:53:29.321Z,1021.91
2024-01-10T03:53:59.617Z,1021.91
2024-01-10T03:54:32.204Z,1021.84
2024-01-10T03:55:02.834Z,1021.84
2024-01-10T03:55:34.149Z,1022.01
2024-01-10T03:56:04.139Z,1022.01
2024-01-10T03:56:36.175Z,1022.01
2024-01-10T03:57:05.982Z,1021.91
2024-01-10T03:57:37.634Z,1021.91
2024-01-10T03:58:07.796Z,1022.01
2024-01-10T03:58:39.341Z,1022.01
2024-01-10T03:59:09.473Z,1022.01
2024-01-10T03:59:41.093Z,1022.01
2024-01-10T04:00:16.039Z,1021.91
2024-01-10T04:00:43.347Z,1021.91
2024-01-10T04:01:13.997Z,1021.91
2024-01-10T04:01:45.917Z,1021.91
2024-01-10T04:02:16.019Z,1022.01
2024-01-10T04:02:49.885Z,1022.01
2024-01-10T04:03:18.361Z,1022.01
2024-01-10T04:03:49.614Z,1022.01
2024-01-10T04:04:19.904Z,1021.91
2024-01-10T04:04:51.740Z,1021.91
2024-01-10T04:05:23.972Z,1022.01
2024-01-10T04:05:53.286Z,1022.01
2024-01-10T04:06:24.022Z,1021.91
2024-01-10T04:06:55.423Z,1021.91
2024-01-10T04:07:25.460Z,1021.91
2024-01-10T04:07:57.060Z,1021.91
2024-01-10T04:08:27.826Z,1022.01
2024-01-10T04:08:59.421Z,1022.01
2024-01-10T04:09:29.787Z,1022.21
2024-01-10T04:10:02.575Z,1022.21
2024-01-10T04:10:34.197Z,1021.91
2024-01-10T04:11:03.989Z,1021.91
2024-01-10T04:11:33.706Z,1022.01
2024-01-10T04:12:05.714Z,1022.01
2024-01-10T04:12:36.564Z,1022.01
2024-01-10T04:13:07.249Z,1022.21
2024-01-10T04:13:37.818Z,1022.21
2024-01-10T04:14:09.556Z,1022.11
2024-01-10T04:14:39.795Z,1022.11
2024-01-10T04:15:13.064Z,1022.21
2024-01-10T04:15:42.728Z,1022.21
2024-01-10T04:16:13.702Z,1022.11
2024-01-10T04:16:44.293Z,1022.11
2024-01-10T04:17:15.732Z,1022.01
2024-01-10T04:17:46.010Z,1022.01
2024-01-10T04:18:18.696Z,1022.11
2024-01-10T04:18:47.792Z,1022.11
2024-01-10T04:19:20.501Z,1022.01
2024-01-10T04:19:49.623Z,1022.01
2024-01-10T04:20:22.118Z,1022.21
2024-01-10T04:20:53.046Z,1022.21
2024-01-10T04:21:24.318Z,1022.21
2024-01-10T04:21:53.976Z,1022.21
2024-01-10T04:22:26.050Z,1022.21
2024-01-10T04:22:55.949Z,1022.21
2024-01-10T04:23:27.664Z,1022.21
2024-01-10T04:23:57.489Z,1022.21
2024-01-10T04:24:30.667Z,1022.01
2024-01-10T04:24:59.631Z,1022.01
2024-01-10T04:25:32.462Z,1022.11
2024-01-10T04:26:03.013Z,1022.11
2024-01-10T04:26:33.546Z,1022.32
2024-01-10T04:27:03.626Z,1022.21
2024-01-10T04:27:35.495Z,1022.21
2024-01-10T04:28:06.210Z,1022.01
2024-01-10T04:28:36.448Z,1022.01
2024-01-10T04:29:08.170Z,1022.21
2024-01-10T04:29:38.616Z,1022.21
2024-01-10T04:30:11.739Z,1022.21
2024-01-10T04:30:40.978Z,1022.21
2024-01-10T04:31:13.140Z,1022.32
2024-01-10T04:31:43.284Z,1022.32
2024-01-10T04:32:14.551Z,1022.32
2024-01-10T04:32:44.805Z,1022.32
2024-01-10T04:33:22.659Z,1022.11
2024-01-10T04:33:47.748Z,1022.11
2024-01-10T04:34:17.619Z,1022.11
2024-01-10T04:34:49.272Z,1022.11
2024-01-10T04:35:20.127Z,1022.21
2024-01-10T04:35:51.900Z,1022.21
2024-01-10T04:36:23.219Z,1022.42
2024-01-10T04:36:53.754Z,1022.42
2024-01-10T04:37:23.621Z,1022.32
2024-01-10T04:37:55.342Z,1022.32
2024-01-10T04:38:25.771Z,1022.32
2024-01-10T04:38:57.325Z,1022.32
2024-01-10T04:39:27.742Z,1022.21
2024-01-10T04:39:59.656Z,1022.21
2024-01-10T04:40:30.211Z,1022.32
2024-01-10T04:41:01.689Z,1022.32
2024-01-10T04:41:32.387Z,1022.01
2024-01-10T04:42:07.683Z,1022.01
2024-01-10T04:42:35.599Z,1022.32
2024-01-10T04:43:05.664Z,1022.52
2024-01-10T04:43:35.959Z,1022.52
2024-01-10T04:44:07.695Z,1022.11
2024-01-10T04:44:37.744Z,1022.11
2024-01-10T04:45:10.101Z,1022.11
2024-01-10T04:45:39.468Z,1022.11
2024-01-10T04:46:11.608Z,1022.42
2024-01-10T04:46:42.730Z,1022.42
2024-01-10T04:47:13.736Z,1022.52
2024-01-10T04:47:43.462Z,1022.52
2024-01-10T04:48:15.403Z,1022.32
2024-01-10T04:48:45.923Z,1022.32
2024-01-10T04:49:17.350Z,1022.42
2024-01-10T04:49:47.551Z,1022.42
2024-01-10T04:50:21.021Z,1022.21
2024-01-10T04:50:49.650Z,1022.21
2024-01-10T04:51:21.639Z,1022.42
2024-01-10T04:51:52.655Z,1022.42
2024-01-10T04:52:23.303Z,1022.32
2024-01-10T04:52:53.746Z,1022.32
2024-01-10T04:53:25.345Z,1022.42
2024-01-10T04:53:55.720Z,1022.42
2024-01-10T04:54:27.523Z,1022.21
2024-01-10T04:54:57.698Z,1022.21
2024-01-10T04:55:29.852Z,1022.32
2024-01-10T04:55:59.791Z,1022.32
2024-01-10T04:56:31.612Z,1022.42
2024-01-10T04:57:02.650Z,1022.42
2024-01-10T04:57:33.009Z,1022.42
2024-01-10T04:58:03.743Z,1022.62
2024-01-10T04:58:35.608Z,1022.62
2024-01-10T04:59:05.761Z,1022.62
2024-01-10T04:59:37.466Z,1022.62
2024-01-10T05:00:07.889Z,1022.42
2024-01-10T05:00:50.794Z,1022.42
2024-01-10T05:01:10.262Z,1022.42
2024-01-10T05:01:41.707Z,1022.42
2024-01-10T05:02:13.270Z,1022.52
2024-01-10T05:02:43.255Z,1022.52
2024-01-10T05:03:13.443Z,1022.62
2024-01-10T05:03:45.386Z,1022.62
2024-01-10T05:04:15.518Z,1022.62
2024-01-10T05:04:47.212Z,1022.62
2024-01-10T05:05:18.095Z,1022.52
2024-01-10T05:05:49.463Z,1022.52
2024-01-10T05:06:19.730Z,1022.62
2024-01-10T05:06:51.332Z,1022.62
2024-01-10T05:07:22.639Z,1022.32
2024-01-10T05:07:53.554Z,1022.32
2024-01-10T05:08:24.046Z,1022.52
2024-01-10T05:08:55.544Z,1022.52
2024-01-10T05:09:25.583Z,1022.42
2024-01-10T05:09:57.501Z,1022.42
2024-01-10T05:10:28.517Z,1022.62
2024-01-10T05:10:59.227Z,1022.62
2024-01-10T05:11:29.678Z,1022.42
2024-01-10T05:12:01.754Z,1022.42
2024-01-10T05:12:32.690Z,1022.32
2024-01-10T05:13:03.283Z,1022.32
2024-01-10T05:13:33.753Z,1022.42
2024-01-10T05:14:05.343Z,1022.42
2024-01-10T05:14:35.579Z,1022.42
2024-01-10T05:15:07.362Z,1022.52
2024-01-10T05:15:38.577Z,1022.52
2024-01-10T05:16:09.598Z,1022.52
2024-01-10T05:16:39.997Z,1022.52
2024-01-10T05:17:12.047Z,1022.72
2024-01-10T05:17:42.644Z,1022.72
2024-01-10T05:18:13.930Z,1022.72
2024-01-10T05:18:43.719Z,1022.72
2024-01-10T05:19:15.059Z,1022.82
2024-01-10T05:19:46.065Z,1022.82
2024-01-10T05:20:17.562Z,1022.72
2024-01-10T05:20:47.735Z,1022.72
2024-01-10T05:21:19.635Z,1022.72
2024-01-10T05:21:49.684Z,1022.72
2024-01-10T05:22:21.409Z,1022.62
2024-01-10T05:22:52.845Z,1022.62
2024-01-10T05:23:29.435Z,1022.52
2024-01-10T05:23:54.721Z,1022.52
2024-01-10T05:24:24.678Z,1022.72
2024-01-10T05:24:55.992Z,1022.72
2024-01-10T05:25:26.921Z,1022.72
2024-01-10T05:25:58.011Z,1022.72
2024-01-10T05:26:28.487Z,1022.72
2024-01-10T05:27:00.144Z,1022.72
2024-01-10T05:27:31.431Z,1022.62
2024-01-10T05:28:02.570Z,1022.62
2024-01-10T05:28:33.216Z,1022.52
2024-01-10T05:29:03.825Z,1022.82
2024-01-10T05:29:35.826Z,1022.82
2024-01-10T05:30:05.721Z,1022.72
2024-01-10T05:30:39.162Z,1022.72
2024-01-10T05:31:07.770Z,1022.72
2024-01-10T05:31:39.385Z,1022.72
2024-01-10T05:32:09.700Z,1022.62
2024-01-10T05:32:41.355Z,1022.62
2024-01-10T05:33:13.059Z,1022.92
2024-01-10T05:33:43.572Z,1022.92
2024-01-10T05:34:13.716Z,1022.82
2024-01-10T05:34:45.001Z,1022.82
2024-01-10T05:35:15.948Z,1022.72
2024-01-10T05:35:47.365Z,1022.72
2024-01-10T05:36:18.117Z,1022.82
2024-01-10T05:36:49.322Z,1022.82
2024-01-10T05:37:19.978Z,1022.92
2024-01-10T05:37:51.645Z,1022.92
2024-01-10T05:38:22.637Z,1022.72
2024-01-10T05:38:53.184Z,1022.72
2024-01-10T05:39:24.206Z,1022.92
2024-01-10T05:39:55.440Z,1022.92
2024-01-10T05:40:27.316Z,1022.82
2024-01-10T05:40:57.451Z,1022.82
2024-01-10T05:41:27.477Z,1022.82
2024-01-10T05:41:59.091Z,1022.82
2024-01-10T05:42:30.360Z,1022.72
2024-01-10T05:43:01.612Z,1022.72
2024-01-10T05:43:33.161Z,1022.82
2024-01-10T05:44:03.453Z,1022.82
2024-01-10T05:44:34.121Z,1022.72
2024-01-10T05:45:05.859Z,1022.82
2024-01-10T05:45:36.653Z,1022.82
2024-01-10T05:46:07.839Z,1022.82
2024-01-10T05:46:37.430Z,1022.82
2024-01-10T05:47:09.189Z,1023.03
2024-01-10T05:47:39.409Z,1023.03
2024-01-10T05:48:11.699Z,1022.82
2024-01-10T05:48:42.511Z,1022.82
2024-01-10T05:49:13.061Z,1022.92
2024-01-10T05:49:43.466Z,1022.92
2024-01-10T05:50:15.613Z,1023.13
2024-01-10T05:50:45.392Z,1023.13
2024-01-10T05:51:17.545Z,1022.82
2024-01-10T05:51:47.600Z,1022.82
2024-01-10T05:52:19.816Z,1022.92
2024-01-10T05:52:50.240Z,1022.92
2024-01-10T05:53:21.588Z,1022.82
2024-01-10T05:53:52.773Z,1022.82
2024-01-10T05:54:23.888Z,1022.92
2024-01-10T05:54:53.517Z,1022.92
2024-01-10T05:55:26.479Z,1022.92
2024-01-10T05:55:55.523Z,1022.92
2024-01-10T05:56:27.109Z,1023.03
2024-01-10T05:56:57.641Z,1023.03
2024-01-10T05:57:29.502Z,1022.72
2024-01-10T05:57:59.675Z,1022.72
2024-01-10T05:58:32.204Z,1022.82
2024-01-10T05:59:02.734Z,1022.82
2024-01-10T05:59:33.690Z,1022.82
2024-01-10T06:00:03.502Z,1022.92
2024-01-10T06:00:37.782Z,1022.92
2024-01-10T06:01:06.345Z,1023.03
2024-01-10T06:01:37.031Z,1023.03
2024-01-10T06:02:07.447Z,1022.82
2024-01-10T06:02:39.050Z,1022.82
2024-01-10T06:03:09.751Z,1022.82
2024-01-10T06:03:41.334Z,1022.82
2024-01-10T06:04:12.570Z,1022.82
2024-01-10T06:04:43.177Z,1022.82
2024-01-10T06:05:14.850Z,1023.03
2024-01-10T06:05:45.629Z,1023.03
2024-01-10T06:06:15.807Z,1022.92
2024-01-10T06:06:48.106Z,1022.92
2024-01-10T06:07:17.407Z,1022.82
2024-01-10T06:07:49.990Z,1022.82
2024-01-10T06:08:19.819Z,1022.92
2024-01-10T06:08:52.034Z,1022.92
2024-01-10T06:09:22.664Z,1023.03
2024-01-10T06:09:53.119Z,1023.03
2024-01-10T06:10:24.302Z,1022.82
2024-01-10T06:10:55.878Z,1022.82
2024-01-10T06:11:25.887Z,1022.82
2024-01-10T06:11:57.493Z,1022.82
2024-01-10T06:12:27.807Z,1022.92
2024-01-10T06:12:59.407Z,1022.92
2024-01-10T06:13:38.029Z,1022.82
2024-01-10T06:14:01.918Z,1022.82
2024-01-10T06:14:32.821Z,1022.82
2024-01-10T06:15:03.514Z,1022.82
2024-01-10T06:15:34.490Z,1022.92
2024-01-10T06:16:05.590Z,1022.92
2024-01-10T06:16:35.373Z,1022.92
2024-01-10T06:17:07.072Z,1022.92
2024-01-10T06:17:37.989Z,1022.92
2024-01-10T06:18:09.362Z,1022.92
2024-01-10T06:18:39.839Z,1022.92
2024-01-10T06:19:11.545Z,1023.13
2024-01-10T06:19:42.929Z,1023.13
2024-01-10T06:20:14.132Z,1023.03
2024-01-10T06:20:43.370Z,1023.03
2024-01-10T06:21:15.621Z,1023.13
2024-01-10T06:21:45.706Z,1023.13
2024-01-10T06:22:17.577Z,1023.23
2024-01-10T06:22:47.469Z,1023.23
2024-01-10T06:23:19.678Z,1022.92
2024-01-10T06:23:49.736Z,1022.92
2024-01-10T06:24:22.046Z,1023.13
2024-01-10T06:24:52.431Z,1023.13
2024-01-10T06:25:28.878Z,1023.13
2024-01-10T06:25:53.763Z,1023.13
2024-01-10T06:26:25.516Z,1022.92
2024-01-10T06:26:55.407Z,1022.92
2024-01-10T06:27:26.385Z,1023.03
2024-01-10T06:27:57.708Z,1023.03
2024-01-10T06:28:29.406Z,1022.92
2024-01-10T06:28:59.833Z,1022.92
2024-01-10T06:29:31.664Z,1023.13
2024-01-10T06:30:02.527Z,1023.13
2024-01-10T06:30:34.513Z,1022.82
2024-01-10T06:31:04.837Z,1023.13
2024-01-10T06:31:35.113Z,1023.13
2024-01-10T06:32:05.854Z,1022.72
2024-01-10T06:32:37.625Z,1022.72
2024-01-10T06:33:07.556Z,1022.92
2024-01-10T06:33:39.252Z,1022.92
2024-01-10T06:34:09.819Z,1022.82
2024-01-10T06:34:41.117Z,1022.82
2024-01-10T06:35:13.319Z,1023.03
2024-01-10T06:35:43.736Z,1023.03
2024-01-10T06:36:14.218Z,1023.33
2024-01-10T06:36:45.255Z,1023.33
2024-01-10T06:37:15.652Z,1023.13
2024-01-10T06:37:47.542Z,1023.13
2024-01-10T06:38:18.193Z,1023.03
2024-01-10T06:38:49.257Z,1023.03
2024-01-10T06:39:19.655Z,1022.82
2024-01-10T06:39:51.749Z,1022.82
2024-01-10T06:40:23.349Z,1022.72
2024-01-10T06:40:54.299Z,1022.72
2024-01-10T06:41:23.477Z,1022.92
2024-01-10T06:41:55.186Z,1022.92